Time;durP1;ratioP1;P1;durP2;ratioP2;P2;SDS_P1;SDS_P2;PMS_P1;PMS_P2;Temp;Humidity;BMP_temperature;BMP_pressure;BME280_temperature;BME280_humidity;BME280_pressure;Samples;Min_cycle;Max_cycle;Signal;HPM_P1;HPM_P2
2021/01/19 00:01:13;;;;;;;39.38;32.28;;;17.30;99.90;;;;;;5053132;28;20044;-27
2021/01/19 00:03:39;;;;;;;35.53;30.63;;;17.30;99.90;;;;;;5052321;28;20530;-27
2021/01/19 00:06:06;;;;;;;36.50;31.83;;;17.20;99.90;;;;;;5072741;28;20060;-27
2021/01/19 00:08:33;;;;;;;35.07;31.00;;;17.20;99.90;;;;;;5073115;28;20029;-27
2021/01/19 00:10:59;;;;;;;36.85;32.92;;;17.20;99.90;;;;;;5072984;28;20023;-27
2021/01/19 00:13:25;;;;;;;37.13;30.65;;;17.20;99.90;;;;;;5072905;28;20047;-27
2021/01/19 00:15:51;;;;;;;35.85;30.08;;;17.10;99.90;;;;;;5073035;28;20466;-27
2021/01/19 00:18:17;;;;;;;35.42;30.10;;;17.20;99.90;;;;;;5071310;28;20130;-27
2021/01/19 00:20:44;;;;;;;33.13;28.67;;;17.10;99.90;;;;;;5073116;28;20070;-27
2021/01/19 00:23:12;;;;;;;35.97;29.70;;;17.10;99.90;;;;;;5069705;28;20029;-27
2021/01/19 00:25:42;;;;;;;31.77;28.33;;;17.00;99.90;;;;;;5053510;28;20075;-27
2021/01/19 00:28:10;;;;;;;34.63;29.65;;;17.00;99.90;;;;;;5072795;28;20021;-27
2021/01/19 00:30:43;;;;;;;33.13;28.70;;;17.00;99.90;;;;;;5071709;28;20028;-27
2021/01/19 00:33:10;;;;;;;31.30;27.67;;;17.00;99.90;;;;;;5072774;28;20049;-27
2021/01/19 00:35:36;;;;;;;31.60;27.67;;;17.00;99.90;;;;;;5058925;28;20082;-27
2021/01/19 00:38:06;;;;;;;34.10;27.88;;;17.00;99.90;;;;;;5067998;28;20029;-27
2021/01/19 00:40:32;;;;;;;32.92;26.85;;;16.90;99.90;;;;;;5055772;28;20029;-27
2021/01/19 00:42:58;;;;;;;31.55;26.67;;;17.00;99.90;;;;;;5052686;28;20360;-27
2021/01/19 00:45:24;;;;;;;30.20;26.58;;;16.90;99.90;;;;;;5052695;28;20049;-27
2021/01/19 00:47:50;;;;;;;31.08;26.67;;;16.90;99.90;;;;;;5052578;28;20593;-27
2021/01/19 00:50:15;;;;;;;32.70;27.20;;;16.90;99.90;;;;;;5052601;28;20102;-27
2021/01/19 00:52:42;;;;;;;28.73;25.40;;;16.90;99.90;;;;;;5052669;28;20029;-27
2021/01/19 00:55:09;;;;;;;32.20;25.92;;;16.80;99.90;;;;;;5052729;28;20083;-27
2021/01/19 00:57:35;;;;;;;30.83;25.77;;;16.80;99.90;;;;;;5052723;28;20021;-27
2021/01/19 01:00:01;;;;;;;32.35;26.65;;;16.80;99.90;;;;;;5052474;28;20274;-27
2021/01/19 01:02:26;;;;;;;29.17;25.55;;;16.80;99.90;;;;;;5069874;28;20016;-27
2021/01/19 01:04:52;;;;;;;29.77;25.98;;;16.80;99.90;;;;;;5052918;28;20375;-27
2021/01/19 01:07:18;;;;;;;30.50;25.75;;;16.70;99.90;;;;;;5072639;28;20021;-27
2021/01/19 01:09:44;;;;;;;28.10;24.02;;;16.70;99.90;;;;;;5072683;28;20025;-27
2021/01/19 01:12:09;;;;;;;29.90;24.48;;;16.70;99.90;;;;;;5074384;28;20025;-27
2021/01/19 01:14:35;;;;;;;30.05;24.58;;;16.70;99.90;;;;;;5054868;28;20104;-27
2021/01/19 01:17:01;;;;;;;30.17;24.75;;;16.70;99.90;;;;;;5055605;28;20091;-27
2021/01/19 01:19:27;;;;;;;29.27;23.88;;;16.70;99.90;;;;;;5056187;28;20032;-27
2021/01/19 01:21:53;;;;;;;27.35;23.27;;;16.70;99.90;;;;;;5056404;28;20021;-27
2021/01/19 01:24:19;;;;;;;29.77;24.45;;;16.70;99.90;;;;;;5056060;28;20414;-27
2021/01/19 01:26:45;;;;;;;28.05;23.85;;;16.60;99.90;;;;;;5063191;28;20025;-27
2021/01/19 01:29:11;;;;;;;27.98;24.42;;;16.60;99.90;;;;;;5075880;28;20050;-27
2021/01/19 01:31:37;;;;;;;28.70;24.58;;;16.60;99.90;;;;;;5063957;28;20037;-27
2021/01/19 01:34:05;;;;;;;26.83;23.67;;;16.60;99.90;;;;;;5055508;28;20064;-26
2021/01/19 01:36:40;;;;;;;27.48;23.30;;;16.60;99.90;;;;;;5055783;28;20028;-27
2021/01/19 01:39:06;;;;;;;28.77;23.58;;;16.60;99.90;;;;;;5061855;28;20052;-27
2021/01/19 01:41:32;;;;;;;25.38;22.67;;;16.60;99.90;;;;;;5075706;28;20111;-27
2021/01/19 01:44:01;;;;;;;27.50;22.95;;;16.50;99.90;;;;;;5075873;28;20075;-27
2021/01/19 01:46:30;;;;;;;30.80;23.15;;;16.50;99.90;;;;;;5075504;28;20028;-29
2021/01/19 01:48:57;;;;;;;25.60;22.50;;;16.50;99.90;;;;;;5075450;28;20028;-27
2021/01/19 01:51:24;;;;;;;26.38;21.92;;;16.50;99.90;;;;;;5075457;28;20107;-27
2021/01/19 01:53:53;;;;;;;28.33;23.00;;;16.50;99.90;;;;;;5074728;28;20029;-27
2021/01/19 01:56:19;;;;;;;26.90;22.05;;;16.50;99.90;;;;;;5055422;28;20474;-27
2021/01/19 01:58:46;;;;;;;23.98;20.50;;;16.50;99.90;;;;;;5055085;28;20394;-27
2021/01/19 02:01:12;;;;;;;29.42;22.23;;;16.50;99.90;;;;;;5055146;28;20040;-27
2021/01/19 02:03:38;;;;;;;25.92;22.13;;;16.40;99.90;;;;;;5054936;28;20029;-27
2021/01/19 02:06:05;;;;;;;28.02;22.23;;;16.40;99.90;;;;;;5069097;28;20031;-27
2021/01/19 02:08:53;;;;;;;24.38;21.63;;;16.40;99.90;;;;;;5074977;28;20031;-27
2021/01/19 02:11:38;;;;;;;26.70;21.58;;;16.40;99.90;;;;;;5075009;28;20043;-27
2021/01/19 02:14:30;;;;;;;24.05;20.77;;;16.40;99.90;;;;;;5073529;28;20020;-27
2021/01/19 02:17:09;;;;;;;26.77;21.50;;;16.40;99.90;;;;;;5073941;28;20056;-27
2021/01/19 02:20:00;;;;;;;23.80;19.98;;;16.40;99.90;;;;;;5075059;28;20059;-27
2021/01/19 02:22:54;;;;;;;22.70;20.05;;;16.30;99.90;;;;;;5074209;28;20774;-27
2021/01/19 02:25:32;;;;;;;25.30;21.30;;;16.30;99.90;;;;;;5074958;28;20023;-27
2021/01/19 02:28:10;;;;;;;23.27;19.02;;;16.30;99.90;;;;;;5074855;28;20091;-27
2021/01/19 02:30:59;;;;;;;23.25;19.52;;;16.30;99.90;;;;;;5074055;28;20028;-27
2021/01/19 02:33:52;;;;;;;22.35;20.00;;;16.30;99.90;;;;;;5063688;28;20119;-27
2021/01/19 02:36:27;;;;;;;22.80;20.10;;;16.30;99.90;;;;;;5074678;28;20101;-27
2021/01/19 02:38:57;;;;;;;22.33;17.92;;;16.20;99.90;;;;;;5056436;28;20029;-27
2021/01/19 02:41:24;;;;;;;21.27;17.75;;;16.20;99.90;;;;;;5054685;28;20036;-27
2021/01/19 02:44:04;;;;;;;21.92;18.75;;;16.20;99.90;;;;;;5072593;28;20024;-27
2021/01/19 02:46:30;;;;;;;22.95;18.90;;;16.20;99.90;;;;;;5074483;28;20348;-27
2021/01/19 02:48:56;;;;;;;20.08;17.63;;;16.20;99.90;;;;;;5056386;28;20021;-27
2021/01/19 02:51:22;;;;;;;22.75;17.83;;;16.20;99.90;;;;;;5054519;28;20029;-27
2021/01/19 02:53:53;;;;;;;20.17;17.08;;;16.20;99.90;;;;;;5053107;28;20379;-27
2021/01/19 02:56:37;;;;;;;22.13;18.23;;;16.20;99.90;;;;;;5054195;28;20426;-27
2021/01/19 02:59:13;;;;;;;21.90;17.60;;;16.10;99.90;;;;;;5054023;28;20029;-27
2021/01/19 03:02:00;;;;;;;21.67;18.77;;;16.10;99.90;;;;;;5054085;28;20023;-27
2021/01/19 03:04:30;;;;;;;21.05;16.95;;;16.10;99.90;;;;;;5054122;28;20820;-27
2021/01/19 03:07:02;;;;;;;21.33;18.48;;;16.10;99.90;;;;;;5054150;28;20079;-27
2021/01/19 03:09:29;;;;;;;19.40;16.83;;;16.10;99.90;;;;;;5054253;28;20021;-27
2021/01/19 03:11:58;;;;;;;22.58;17.67;;;16.00;99.90;;;;;;5053945;28;20070;-27
2021/01/19 03:14:24;;;;;;;20.52;16.55;;;16.00;99.90;;;;;;5053875;28;20079;-27
2021/01/19 03:16:50;;;;;;;19.77;17.27;;;16.00;99.90;;;;;;5054095;28;20025;-27
2021/01/19 03:19:19;;;;;;;19.35;17.08;;;16.00;99.90;;;;;;5053864;28;20161;-27
2021/01/19 03:21:45;;;;;;;20.15;16.65;;;16.00;99.90;;;;;;5053671;28;20479;-27
2021/01/19 03:24:11;;;;;;;18.98;16.10;;;16.00;99.90;;;;;;5053669;28;20028;-27
2021/01/19 03:26:36;;;;;;;19.63;16.75;;;16.00;99.90;;;;;;5053775;28;20374;-27
2021/01/19 03:29:04;;;;;;;20.83;16.17;;;16.00;99.90;;;;;;5052291;28;20115;-27
2021/01/19 03:31:31;;;;;;;18.48;16.38;;;16.00;99.90;;;;;;5053559;28;20060;-27
2021/01/19 03:33:57;;;;;;;18.98;15.70;;;16.00;99.90;;;;;;5053466;28;20068;-27
2021/01/19 03:36:23;;;;;;;17.77;15.23;;;16.00;99.90;;;;;;5053651;28;20067;-27
2021/01/19 03:38:48;;;;;;;17.58;15.65;;;16.00;99.90;;;;;;5053363;28;20098;-27
2021/01/19 03:41:14;;;;;;;18.52;15.70;;;15.90;99.90;;;;;;5053413;28;20030;-27
2021/01/19 03:43:40;;;;;;;18.98;15.70;;;15.90;99.90;;;;;;5053549;28;20025;-27
2021/01/19 03:46:06;;;;;;;20.20;14.98;;;15.90;99.90;;;;;;5053494;28;20033;-27
2021/01/19 03:48:31;;;;;;;18.52;15.60;;;15.90;99.90;;;;;;5052103;28;20037;-27
2021/01/19 03:50:57;;;;;;;18.35;15.50;;;15.90;99.90;;;;;;5053386;28;20426;-27
2021/01/19 03:53:23;;;;;;;17.15;15.35;;;15.90;99.90;;;;;;5055915;28;20032;-27
2021/01/19 03:55:49;;;;;;;17.15;14.20;;;15.90;99.90;;;;;;5053282;28;20029;-27
2021/01/19 03:58:14;;;;;;;15.98;14.02;;;15.90;99.90;;;;;;5051768;28;20075;-27
2021/01/19 04:00:40;;;;;;;19.50;15.25;;;15.90;99.90;;;;;;5053253;28;20120;-27
2021/01/19 04:03:06;;;;;;;16.48;14.52;;;15.90;99.90;;;;;;5053121;28;20021;-26
2021/01/19 04:05:32;;;;;;;18.25;14.45;;;15.90;99.90;;;;;;5053162;28;20031;-27
2021/01/19 04:07:58;;;;;;;19.85;15.35;;;15.80;99.90;;;;;;5053171;28;20032;-27
2021/01/19 04:10:23;;;;;;;15.85;13.90;;;15.90;99.90;;;;;;5053175;28;20040;-27
2021/01/19 04:12:49;;;;;;;15.45;13.85;;;15.80;99.90;;;;;;5053289;28;20031;-27
2021/01/19 04:15:15;;;;;;;16.25;14.00;;;15.90;99.90;;;;;;5052898;28;20059;-27
2021/01/19 04:17:41;;;;;;;17.45;14.70;;;15.80;99.90;;;;;;5051704;28;20025;-27
2021/01/19 04:20:08;;;;;;;16.65;13.95;;;15.80;99.90;;;;;;5052893;28;20025;-27
2021/01/19 04:22:34;;;;;;;16.02;13.80;;;15.80;99.90;;;;;;5053020;28;20028;-27
2021/01/19 04:25:00;;;;;;;15.52;13.45;;;15.80;99.90;;;;;;5053166;28;20146;-27
2021/01/19 04:27:26;;;;;;;16.33;13.60;;;15.80;99.90;;;;;;5052931;28;20499;-27
2021/01/19 04:29:52;;;;;;;14.77;13.07;;;15.80;99.90;;;;;;5053288;28;20043;-27
2021/01/19 04:32:18;;;;;;;15.82;13.52;;;15.80;99.90;;;;;;5053042;28;20371;-27
2021/01/19 04:34:44;;;;;;;14.50;12.60;;;15.80;99.90;;;;;;5052671;28;20053;-27
2021/01/19 04:37:10;;;;;;;14.90;13.35;;;15.80;99.90;;;;;;5052812;28;20083;-27
2021/01/19 04:39:35;;;;;;;17.48;13.30;;;15.80;99.90;;;;;;5052853;28;20076;-28
2021/01/19 04:42:01;;;;;;;15.80;13.93;;;15.80;99.90;;;;;;5052727;28;20021;-27
2021/01/19 04:44:29;;;;;;;14.45;11.90;;;15.80;99.90;;;;;;5052753;28;20028;-27
2021/01/19 04:46:55;;;;;;;15.00;12.77;;;15.80;99.90;;;;;;5055660;28;20414;-30
2021/01/19 04:49:22;;;;;;;14.48;12.15;;;15.80;99.90;;;;;;5055510;28;20131;-29
2021/01/19 04:51:48;;;;;;;14.75;12.88;;;15.80;99.90;;;;;;5055393;28;20051;-29
2021/01/19 04:54:21;;;;;;;14.50;12.52;;;15.80;99.90;;;;;;5055490;28;20048;-29
2021/01/19 04:56:53;;;;;;;15.35;12.00;;;15.80;99.90;;;;;;5055606;28;20033;-29
2021/01/19 04:59:25;;;;;;;13.85;11.60;;;15.70;99.90;;;;;;5055436;28;20539;-29
2021/01/19 05:01:51;;;;;;;13.52;11.80;;;15.70;99.90;;;;;;5055243;28;20032;-29
2021/01/19 05:04:20;;;;;;;15.35;11.70;;;15.80;99.90;;;;;;5055239;28;20033;-29
2021/01/19 05:07:00;;;;;;;13.70;12.15;;;15.80;99.90;;;;;;5055010;28;20036;-29
2021/01/19 05:09:37;;;;;;;13.23;11.25;;;15.70;99.90;;;;;;5055051;28;20479;-29
2021/01/19 05:12:05;;;;;;;18.67;12.38;;;15.70;99.90;;;;;;5055201;28;20056;-29
2021/01/19 05:14:39;;;;;;;15.57;11.85;;;15.70;99.90;;;;;;5055128;28;20025;-29
2021/01/19 05:17:06;;;;;;;12.35;10.75;;;15.60;99.90;;;;;;5055261;28;20033;-30
2021/01/19 05:19:32;;;;;;;12.00;10.57;;;15.70;99.90;;;;;;5055169;28;20115;-29
2021/01/19 05:21:58;;;;;;;13.02;10.80;;;15.70;99.90;;;;;;5055065;28;20459;-29
2021/01/19 05:24:24;;;;;;;14.40;11.07;;;15.70;99.90;;;;;;5055076;28;20497;-29
2021/01/19 05:26:51;;;;;;;15.15;10.65;;;15.70;99.90;;;;;;5055308;28;20452;-29
2021/01/19 05:29:17;;;;;;;11.85;10.65;;;15.70;99.90;;;;;;5055182;28;20021;-29
2021/01/19 05:31:42;;;;;;;14.25;11.30;;;15.70;99.90;;;;;;5054881;28;20040;-29
2021/01/19 05:34:09;;;;;;;11.60;9.90;;;15.60;99.90;;;;;;5054922;28;20044;-29
2021/01/19 05:36:38;;;;;;;13.40;10.93;;;15.60;99.90;;;;;;5054830;28;20021;-29
2021/01/19 05:39:09;;;;;;;11.40;10.20;;;15.70;99.90;;;;;;5054686;28;20478;-29
2021/01/19 05:41:49;;;;;;;13.70;10.45;;;15.60;99.90;;;;;;5062847;28;20100;-29
2021/01/19 05:44:30;;;;;;;11.75;10.55;;;15.60;99.90;;;;;;5074575;28;20031;-29
2021/01/19 05:46:59;;;;;;;14.93;11.45;;;15.60;99.90;;;;;;5074520;28;20021;-29
2021/01/19 05:49:40;;;;;;;12.63;10.85;;;15.60;99.90;;;;;;5074209;28;20031;-29
2021/01/19 05:52:11;;;;;;;12.30;10.63;;;15.60;99.90;;;;;;5073271;28;20047;-29
2021/01/19 05:54:41;;;;;;;15.50;10.93;;;15.60;99.90;;;;;;5074365;28;20033;-29
2021/01/19 05:57:15;;;;;;;13.02;10.80;;;15.60;99.90;;;;;;5073005;28;20043;-29
2021/01/19 05:59:46;;;;;;;13.52;10.68;;;15.60;99.90;;;;;;5074148;28;20025;-29
2021/01/19 06:02:17;;;;;;;13.10;10.32;;;15.60;99.90;;;;;;5074136;28;20054;-29
2021/01/19 06:04:51;;;;;;;13.32;10.43;;;15.60;99.90;;;;;;5074097;28;20021;-29
2021/01/19 06:07:21;;;;;;;11.85;9.75;;;15.60;99.90;;;;;;5073424;28;20020;-29
2021/01/19 06:09:48;;;;;;;15.15;11.00;;;15.60;99.90;;;;;;5072585;28;20482;-29
2021/01/19 06:12:15;;;;;;;14.20;10.63;;;15.50;99.90;;;;;;5074349;28;20491;-28
2021/01/19 06:14:48;;;;;;;16.55;12.05;;;15.60;99.90;;;;;;5074168;28;20107;-29
2021/01/19 06:17:21;;;;;;;15.80;12.70;;;15.60;99.90;;;;;;5073337;28;20031;-29
2021/01/19 06:19:52;;;;;;;25.63;20.10;;;15.60;99.90;;;;;;5074213;28;20073;-29
2021/01/19 06:22:23;;;;;;;47.10;38.05;;;15.50;99.90;;;;;;5073587;28;20016;-29
2021/01/19 06:24:50;;;;;;;58.97;48.20;;;15.50;99.90;;;;;;5073699;28;20020;-29
2021/01/19 06:27:25;;;;;;;62.67;49.97;;;15.50;99.90;;;;;;5073623;28;20051;-29
2021/01/19 06:30:00;;;;;;;76.43;61.05;;;15.50;99.90;;;;;;5073527;28;20037;-29
2021/01/19 06:32:26;;;;;;;87.75;69.15;;;15.60;99.90;;;;;;5073474;28;20444;-29
2021/01/19 06:34:53;;;;;;;94.40;76.20;;;15.50;99.90;;;;;;5073435;28;20048;-29
2021/01/19 06:37:27;;;;;;;98.22;78.82;;;15.50;99.90;;;;;;5073476;28;20032;-29
2021/01/19 06:39:58;;;;;;;106.82;84.30;;;15.50;99.90;;;;;;5073776;28;20542;-29
2021/01/19 06:42:29;;;;;;;112.18;90.15;;;15.50;99.90;;;;;;5072886;28;20032;-29
2021/01/19 06:44:57;;;;;;;109.07;89.28;;;15.50;99.90;;;;;;5073725;28;20376;-29
2021/01/19 06:47:23;;;;;;;116.50;91.15;;;15.40;99.90;;;;;;5071128;28;20024;-29
2021/01/19 06:49:51;;;;;;;116.93;94.47;;;15.40;99.90;;;;;;5072922;28;20032;-29
2021/01/19 06:52:18;;;;;;;118.38;95.45;;;15.40;99.90;;;;;;5068836;28;20036;-29
2021/01/19 06:54:53;;;;;;;119.40;96.30;;;15.40;99.90;;;;;;5068586;28;20028;-29
2021/01/19 06:57:48;;;;;;;117.40;93.65;;;15.40;99.90;;;;;;5065364;28;20766;-29
2021/01/19 07:00:23;;;;;;;116.97;95.22;;;15.40;99.90;;;;;;5072387;28;20115;-29
2021/01/19 07:02:53;;;;;;;116.70;95.75;;;15.40;99.90;;;;;;5071791;28;20055;-30
2021/01/19 07:05:21;;;;;;;119.82;94.40;;;15.40;99.90;;;;;;5061400;28;20360;-31
2021/01/19 07:08:29;;;;;;;119.28;95.20;;;15.40;99.90;;;;;;5063817;28;20024;-31
2021/01/19 07:11:16;;;;;;;118.38;96.68;;;15.40;99.90;;;;;;5072231;28;20024;-31
2021/01/19 07:13:42;;;;;;;125.03;101.32;;;15.40;99.90;;;;;;5070955;28;20171;-30
2021/01/19 07:16:09;;;;;;;127.53;101.45;;;15.50;99.90;;;;;;5072886;28;20108;-31
2021/01/19 07:19:02;;;;;;;126.28;102.95;;;15.40;99.90;;;;;;5071487;28;20025;-31
2021/01/19 07:22:06;;;;;;;126.13;103.25;;;15.40;99.90;;;;;;5071821;28;20020;-31
2021/01/19 07:24:46;;;;;;;131.35;103.72;;;15.40;99.90;;;;;;5072796;28;20032;-31
2021/01/19 07:27:15;;;;;;;125.10;100.18;;;15.40;99.90;;;;;;5072823;28;20024;-31
2021/01/19 07:29:43;;;;;;;123.32;99.45;;;15.40;99.90;;;;;;5071021;28;20098;-31
2021/01/19 07:32:18;;;;;;;119.43;98.18;;;15.50;99.90;;;;;;5072514;28;20083;-28
2021/01/19 07:34:45;;;;;;;120.13;98.45;;;15.50;99.90;;;;;;5072534;28;20490;-32
2021/01/19 07:37:11;;;;;;;115.15;94.30;;;15.50;99.90;;;;;;5072398;28;20048;-30
2021/01/19 07:39:37;;;;;;;115.93;96.68;;;15.50;99.90;;;;;;5071414;28;20118;-31
2021/01/19 07:42:11;;;;;;;131.80;104.18;;;15.50;99.90;;;;;;5072344;28;20434;-31
2021/01/19 07:44:37;;;;;;;135.23;108.82;;;15.50;99.90;;;;;;5072450;28;20090;-31
2021/01/19 07:47:15;;;;;;;142.85;113.00;;;15.60;99.90;;;;;;5072422;28;20031;-31
2021/01/19 07:49:42;;;;;;;149.48;119.82;;;15.50;99.90;;;;;;5072726;28;20782;-31
2021/01/19 07:52:17;;;;;;;149.10;118.65;;;15.60;99.90;;;;;;5072684;28;20052;-30
2021/01/19 07:54:43;;;;;;;150.90;118.68;;;15.60;99.90;;;;;;5072595;28;20038;-29
2021/01/19 07:57:13;;;;;;;151.57;119.13;;;15.60;99.90;;;;;;5071824;28;20107;-28
2021/01/19 07:59:39;;;;;;;155.63;126.10;;;15.60;99.90;;;;;;5072370;28;20478;-31
2021/01/19 08:02:05;;;;;;;151.38;120.90;;;15.60;99.90;;;;;;5072093;28;20486;-31
2021/01/19 08:04:32;;;;;;;157.48;123.18;;;15.60;99.90;;;;;;5071746;28;20062;-31
2021/01/19 08:07:16;;;;;;;150.07;122.30;;;15.60;99.90;;;;;;5071717;28;20021;-31
2021/01/19 08:09:42;;;;;;;148.95;117.53;;;15.70;99.90;;;;;;5071467;28;20310;-29
2021/01/19 08:12:12;;;;;;;155.15;122.78;;;15.70;99.90;;;;;;5070732;28;20031;-29
2021/01/19 08:14:43;;;;;;;148.25;115.25;;;15.70;99.90;;;;;;5072244;28;20021;-29
2021/01/19 08:17:09;;;;;;;147.20;115.97;;;15.80;99.90;;;;;;5071875;28;20066;-29
2021/01/19 08:19:46;;;;;;;143.68;117.88;;;15.80;99.90;;;;;;5072068;28;20021;-29
2021/01/19 08:22:13;;;;;;;138.82;111.78;;;15.80;99.90;;;;;;5075896;28;20021;-29
2021/01/19 08:24:42;;;;;;;136.32;112.38;;;15.80;99.90;;;;;;5076187;28;20024;-29
2021/01/19 08:27:09;;;;;;;142.13;114.13;;;15.90;99.90;;;;;;5076408;28;20783;-29
2021/01/19 08:29:37;;;;;;;136.90;108.78;;;15.90;99.90;;;;;;5076567;28;20087;-30
2021/01/19 08:32:03;;;;;;;;;;;15.90;99.90;;;;;;5076690;28;20538;-29
2021/01/19 08:34:32;;;;;;;134.15;105.43;;;16.00;99.90;;;;;;5076123;28;19917;-30
2021/01/19 08:37:00;;;;;;;131.52;105.47;;;16.00;99.90;;;;;;5076166;28;20471;-30
2021/01/19 08:39:27;;;;;;;125.97;101.80;;;16.10;99.90;;;;;;5075992;28;20020;-30
2021/01/19 08:41:54;;;;;;;131.10;104.13;;;16.10;99.90;;;;;;5075953;28;20057;-30
2021/01/19 08:44:20;;;;;;;128.23;103.87;;;16.10;99.90;;;;;;5076174;28;20422;-30
2021/01/19 08:46:48;;;;;;;124.25;100.15;;;16.10;99.90;;;;;;5075558;28;20304;-30
2021/01/19 08:49:17;;;;;;;118.10;94.80;;;16.20;99.90;;;;;;5075769;28;20377;-30
2021/01/19 08:51:50;;;;;;;116.28;98.22;;;16.20;99.90;;;;;;5075672;28;20059;-30
2021/01/19 08:54:17;;;;;;;121.15;99.80;;;16.20;99.90;;;;;;5075849;28;20035;-30
2021/01/19 08:56:45;;;;;;;112.30;92.80;;;16.20;99.90;;;;;;5075322;28;20543;-29
2021/01/19 08:59:12;;;;;;;113.78;92.57;;;16.20;99.90;;;;;;5075531;28;20025;-30
2021/01/19 09:01:51;;;;;;;119.13;93.72;;;16.30;99.90;;;;;;5075467;28;20491;-29
2021/01/19 09:04:25;;;;;;;113.15;91.40;;;16.30;99.90;;;;;;5075464;28;20035;-30
2021/01/19 09:06:52;;;;;;;109.22;88.43;;;16.30;99.90;;;;;;5075127;28;20020;-29
2021/01/19 09:09:22;;;;;;;110.80;90.00;;;16.30;99.90;;;;;;5075388;28;20035;-30
2021/01/19 09:11:51;;;;;;;106.18;87.40;;;16.40;99.90;;;;;;5075075;28;20115;-31
2021/01/19 09:14:23;;;;;;;108.43;88.57;;;16.40;99.90;;;;;;5075157;28;20025;-31
2021/01/19 09:16:49;;;;;;;104.95;85.85;;;16.40;99.90;;;;;;5074538;28;20027;-31
2021/01/19 09:19:15;;;;;;;105.70;84.55;;;16.50;99.90;;;;;;5074689;28;20116;-30
2021/01/19 09:21:41;;;;;;;52.00;42.85;;;16.50;99.90;;;;;;5075399;28;20374;-30
2021/01/19 09:24:17;;;;;;;49.53;39.35;;;16.50;99.90;;;;;;5074943;28;20035;-30
2021/01/19 09:26:58;;;;;;;42.42;34.50;;;16.50;99.90;;;;;;5075021;28;20031;-30
2021/01/19 09:29:28;;;;;;;32.95;25.83;;;16.50;99.90;;;;;;5075175;28;20471;-30
2021/01/19 09:31:56;;;;;;;30.80;23.27;;;16.50;99.90;;;;;;5074956;28;20044;-31
2021/01/19 09:34:23;;;;;;;33.28;24.40;;;16.60;99.90;;;;;;5074554;28;20137;-30
2021/01/19 09:36:49;;;;;;;32.70;22.67;;;16.60;99.90;;;;;;5073514;28;20196;-30
2021/01/19 09:39:27;;;;;;;25.30;18.73;;;16.50;99.90;;;;;;5074744;28;20111;-30
2021/01/19 09:41:54;;;;;;;24.63;19.30;;;16.50;99.90;;;;;;5074733;28;20017;-30
2021/01/19 09:44:21;;;;;;;21.02;14.27;;;16.60;99.90;;;;;;5074502;28;20021;-30
2021/01/19 09:46:52;;;;;;;22.25;14.50;;;16.60;99.90;;;;;;5073291;28;20028;-31
2021/01/19 09:49:21;;;;;;;17.75;12.32;;;16.60;99.90;;;;;;5074649;28;20561;-30
2021/01/19 09:51:46;;;;;;;17.60;12.48;;;16.70;99.90;;;;;;5074361;28;20496;-30
2021/01/19 09:54:12;;;;;;;16.33;11.52;;;16.70;99.90;;;;;;5074479;28;20029;-30
2021/01/19 09:56:38;;;;;;;15.38;10.70;;;16.70;99.90;;;;;;5073310;28;20031;-30
2021/01/19 09:59:06;;;;;;;16.08;10.98;;;16.80;99.90;;;;;;5054022;28;20029;-30
2021/01/19 10:01:32;;;;;;;21.67;9.93;;;16.80;99.90;;;;;;5054363;28;20490;-30
2021/01/19 10:03:58;;;;;;;14.00;8.60;;;16.80;99.90;;;;;;5054326;28;20104;-30
2021/01/19 10:06:25;;;;;;;16.75;7.95;;;16.90;99.90;;;;;;5054467;28;20419;-30
2021/01/19 10:08:56;;;;;;;13.18;7.90;;;16.90;99.90;;;;;;5069421;28;20029;-30
2021/01/19 10:11:33;;;;;;;12.38;8.15;;;16.90;99.90;;;;;;5054152;28;20029;-30
2021/01/19 10:14:19;;;;;;;11.00;6.60;;;16.90;99.90;;;;;;5054148;28;20533;-30
2021/01/19 10:16:49;;;;;;;11.95;7.32;;;17.00;99.90;;;;;;5054062;28;20056;-30
2021/01/19 10:19:22;;;;;;;10.15;6.85;;;17.00;99.90;;;;;;5069281;28;20040;-30
2021/01/19 10:21:54;;;;;;;14.27;6.20;;;17.00;99.90;;;;;;5054203;28;20539;-30
2021/01/19 10:24:21;;;;;;;12.40;7.60;;;17.00;99.90;;;;;;5069324;28;20119;-32
2021/01/19 10:26:59;;;;;;;14.25;7.55;;;17.00;99.90;;;;;;5053971;28;20103;-31
2021/01/19 10:29:25;;;;;;;;;;;17.10;99.90;;;;;;5054296;28;20025;-30
2021/01/19 10:31:59;;;;;;;12.07;6.68;;;17.10;99.90;;;;;;5068555;28;19912;-30
2021/01/19 10:34:27;;;;;;;11.38;7.47;;;17.10;99.90;;;;;;5066244;28;20062;-30
2021/01/19 10:36:56;;;;;;;9.75;6.70;;;17.10;99.90;;;;;;5089190;28;20050;-31
2021/01/19 10:39:22;;;;;;;18.30;7.82;;;17.20;99.90;;;;;;5056038;28;20197;-29
2021/01/19 10:41:53;;;;;;;24.08;6.88;;;17.20;99.90;;;;;;5053491;28;20017;-29
2021/01/19 10:44:21;;;;;;;17.85;6.93;;;17.20;99.90;;;;;;5065033;28;20020;-31
2021/01/19 10:46:58;;;;;;;11.98;7.70;;;17.20;99.90;;;;;;5073864;28;20826;-31
2021/01/19 10:49:29;;;;;;;8.60;6.67;;;17.30;99.90;;;;;;5073338;28;20028;-29
2021/01/19 10:51:56;;;;;;;23.67;7.95;;;17.40;99.90;;;;;;5073782;28;20067;-31
2021/01/19 10:54:22;;;;;;;14.27;7.25;;;17.40;99.90;;;;;;5073360;28;20488;-30
2021/01/19 10:57:01;;;;;;;12.32;7.40;;;17.50;99.90;;;;;;5073603;28;20024;-30
2021/01/19 10:59:27;;;;;;;15.75;8.90;;;17.60;99.90;;;;;;5073225;28;20025;-29
2021/01/19 11:01:53;;;;;;;17.77;9.70;;;17.60;99.90;;;;;;5072159;28;20095;-30
2021/01/19 11:04:18;;;;;;;14.18;7.75;;;17.70;99.90;;;;;;5068588;28;20025;-30
2021/01/19 11:06:44;;;;;;;17.27;7.68;;;17.70;99.90;;;;;;5060671;28;20028;-30
2021/01/19 11:09:10;;;;;;;12.80;6.45;;;17.80;99.90;;;;;;5088579;28;20029;-30
2021/01/19 11:11:37;;;;;;;12.07;8.30;;;17.80;99.90;;;;;;5073195;28;20025;-30
2021/01/19 11:14:04;;;;;;;16.67;9.43;;;17.90;99.90;;;;;;5072892;28;20025;-30
2021/01/19 11:16:39;;;;;;;15.30;10.10;;;17.90;99.90;;;;;;5072955;28;20077;-31
2021/01/19 11:19:13;;;;;;;13.52;6.55;;;18.10;99.90;;;;;;5071490;28;20094;-31
2021/01/19 11:21:41;;;;;;;9.27;5.55;;;18.20;99.90;;;;;;5072550;28;20017;-30
2021/01/19 11:24:09;;;;;;;9.55;5.47;;;18.20;99.90;;;;;;5072486;28;20020;-30
2021/01/19 11:26:37;;;;;;;8.80;6.28;;;18.40;99.90;;;;;;5072522;28;20024;-30
2021/01/19 11:29:04;;;;;;;11.13;7.28;;;18.50;99.90;;;;;;5072637;28;20382;-30
2021/01/19 11:31:31;;;;;;;13.53;6.73;;;18.60;99.90;;;;;;5071527;28;20413;-31
2021/01/19 11:34:02;;;;;;;6.32;3.08;;;18.70;99.90;;;;;;5071093;28;20440;-30
2021/01/19 11:36:30;;;;;;;5.18;2.20;;;18.70;99.90;;;;;;5072508;28;20037;-31
2021/01/19 11:38:56;;;;;;;6.45;2.15;;;18.90;99.90;;;;;;5072305;28;20024;-31
2021/01/19 11:41:25;;;;;;;4.97;3.60;;;18.90;99.90;;;;;;5072245;28;20039;-31
2021/01/19 11:43:52;;;;;;;3.53;2.13;;;19.00;99.90;;;;;;5072266;28;20052;-31
2021/01/19 11:46:23;;;;;;;5.78;2.10;;;19.00;99.90;;;;;;5072172;28;20131;-31
2021/01/19 11:48:50;;;;;;;7.00;2.88;;;19.10;99.90;;;;;;5071996;28;20378;-30
2021/01/19 11:51:20;;;;;;;5.23;1.93;;;19.20;99.90;;;;;;5071969;28;20521;-30
2021/01/19 11:53:47;;;;;;;7.30;2.67;;;19.30;99.90;;;;;;5071944;28;20470;-31
2021/01/19 11:56:13;;;;;;;6.15;1.70;;;19.40;99.90;;;;;;5071912;28;20081;-30
2021/01/19 11:58:40;;;;;;;3.85;1.92;;;19.50;99.90;;;;;;5072034;28;20032;-31
2021/01/19 12:01:06;;;;;;;4.03;2.20;;;19.60;99.90;;;;;;5072132;28;20093;-30
2021/01/19 12:03:32;;;;;;;3.35;1.73;;;19.70;99.90;;;;;;5071767;28;20028;-30
2021/01/19 12:05:58;;;;;;;5.57;1.80;;;19.70;99.90;;;;;;5071710;28;20020;-30
2021/01/19 12:08:24;;;;;;;2.85;1.55;;;19.80;99.90;;;;;;5071762;28;20019;-30
2021/01/19 12:10:49;;;;;;;2.95;1.50;;;19.80;99.90;;;;;;5071661;28;20540;-30
2021/01/19 12:13:15;;;;;;;4.90;2.17;;;19.90;99.90;;;;;;5071690;28;20520;-30
2021/01/19 12:15:42;;;;;;;4.65;1.95;;;19.90;99.90;;;;;;5071792;28;20024;-30
2021/01/19 12:18:10;;;;;;;3.90;2.13;;;20.00;99.90;;;;;;5071794;28;20024;-30
2021/01/19 12:20:36;;;;;;;3.97;2.00;;;20.00;99.90;;;;;;5070977;28;20020;-28
2021/01/19 12:23:03;;;;;;;5.25;1.80;;;20.00;99.90;;;;;;5051813;28;20033;-30
2021/01/19 12:25:30;;;;;;;6.53;2.22;;;20.10;99.90;;;;;;5052009;28;20067;-30
2021/01/19 12:27:56;;;;;;;3.13;1.65;;;20.10;99.90;;;;;;5065039;28;20781;-31
2021/01/19 12:30:23;;;;;;;5.03;1.80;;;20.20;99.90;;;;;;5054922;28;20130;-31
2021/01/19 12:32:49;;;;;;;4.78;2.03;;;20.20;99.90;;;;;;5071962;28;20036;-30
2021/01/19 12:35:15;;;;;;;5.28;2.10;;;20.10;99.90;;;;;;5071498;28;20394;-30
2021/01/19 12:37:41;;;;;;;5.85;2.10;;;20.10;99.90;;;;;;5071604;28;20028;-30
2021/01/19 12:40:08;;;;;;;4.20;2.30;;;20.20;99.90;;;;;;5071108;28;20024;-30